createdAt,value
2019-04-14T00:01:30.531Z,89.02
2019-04-14T00:04:18.688Z,89.09
2019-04-14T00:07:05.847Z,88.79
2019-04-14T00:09:52.053Z,89.34
2019-04-14T00:12:38.437Z,89.67
2019-04-14T00:15:32.985Z,90.14
2019-04-14T00:18:12.524Z,90.08
2019-04-14T00:20:58.492Z,89.92
2019-04-14T00:23:45.615Z,90.11
2019-04-14T00:26:33.500Z,90.12
2019-04-14T00:29:19.696Z,90.18
2019-04-14T00:32:05.313Z,90.00
2019-04-14T00:35:19.464Z,89.89
2019-04-14T00:38:21.884Z,89.56
2019-04-14T00:41:18.140Z,89.69
2019-04-14T00:44:23.393Z,90.06
2019-04-14T00:47:18.044Z,90.13
2019-04-14T00:50:07.970Z,89.81
2019-04-14T00:52:54.535Z,89.89
2019-04-14T00:55:42.619Z,90.19
2019-04-14T00:58:30.239Z,90.54
2019-04-14T01:01:16.139Z,90.12
2019-04-14T01:04:03.553Z,89.69
2019-04-14T01:06:49.115Z,89.90
2019-04-14T01:09:35.268Z,90.03
2019-04-14T01:12:23.593Z,89.72
2019-04-14T01:15:09.788Z,89.34
2019-04-14T01:17:57.100Z,89.66
2019-04-14T01:20:45.063Z,89.72
2019-04-14T01:23:31.165Z,90.10
2019-04-14T01:26:16.753Z,89.58
2019-04-14T01:29:03.684Z,89.51
2019-04-14T01:31:51.454Z,89.64
2019-04-14T01:34:37.337Z,89.57
2019-04-14T01:37:24.693Z,89.71
2019-04-14T01:42:50.620Z,89.94
2019-04-14T01:45:38.193Z,89.86
2019-04-14T01:48:25.745Z,90.33
2019-04-14T01:51:22.446Z,90.29
2019-04-14T01:54:34.501Z,90.95
2019-04-14T01:57:41.485Z,91.16
2019-04-14T02:00:49.334Z,91.15
2019-04-14T02:03:35.269Z,91.08
2019-04-14T02:06:22.332Z,90.93
2019-04-14T02:09:10.489Z,91.10
2019-04-14T02:11:55.965Z,91.46
2019-04-14T02:14:43.038Z,91.56
2019-04-14T02:17:30.626Z,91.65
2019-04-14T02:20:17.010Z,91.60
2019-04-14T02:23:04.047Z,91.36
2019-04-14T02:25:51.323Z,91.33
2019-04-14T02:28:37.653Z,91.53
2019-04-14T02:31:43.692Z,91.09
2019-04-14T02:40:21.781Z,91.87
2019-04-14T02:45:53.953Z,90.91
2019-04-14T02:48:45.794Z,90.78
2019-04-14T02:51:26.876Z,90.99
2019-04-14T02:54:13.521Z,90.95
2019-04-14T02:57:03.554Z,90.49
2019-04-14T02:59:51.234Z,90.40
2019-04-14T03:05:26.947Z,90.18
2019-04-14T03:08:21.506Z,90.11
2019-04-14T03:11:03.760Z,90.27
2019-04-14T03:23:05.013Z,91.41
2019-04-14T03:25:57.638Z,91.44
2019-04-14T03:28:51.604Z,90.97
2019-04-14T03:34:55.893Z,90.68
2019-04-14T03:37:39.212Z,90.99
2019-04-14T03:39:57.300Z,91.34
2019-04-14T03:42:55.592Z,90.91
2019-04-14T03:51:22.122Z,91.05
2019-04-14T03:54:01.321Z,91.37
2019-04-14T03:56:48.962Z,91.71
2019-04-14T03:59:34.766Z,92.25
2019-04-14T04:02:20.976Z,91.38
2019-04-14T04:05:07.007Z,91.69
2019-04-14T04:07:53.851Z,92.21
2019-04-14T04:10:40.082Z,92.02
2019-04-14T04:13:26.209Z,92.00
2019-04-14T04:16:31.581Z,91.59
2019-04-14T04:19:40.556Z,91.17
2019-04-14T04:22:41.658Z,91.06
2019-04-14T04:25:44.488Z,92.05
2019-04-14T04:28:50.267Z,92.59
2019-04-14T04:31:54.772Z,92.49
2019-04-14T04:35:08.755Z,92.25
2019-04-14T04:38:09.472Z,91.82
2019-04-14T04:40:55.559Z,91.87
2019-04-14T04:43:40.966Z,91.62
2019-04-14T04:46:27.134Z,91.03
2019-04-14T04:49:20.350Z,91.76
2019-04-14T04:52:00.217Z,91.88
2019-04-14T04:54:47.396Z,92.10
2019-04-14T04:57:33.663Z,91.59
2019-04-14T05:00:19.972Z,91.39
2019-04-14T05:03:06.371Z,91.41
2019-04-14T05:06:11.321Z,91.47
2019-04-14T05:09:05.983Z,91.35
2019-04-14T05:12:15.337Z,90.26
2019-04-14T05:15:11.844Z,89.80
2019-04-14T05:17:58.042Z,89.39
2019-04-14T05:20:44.379Z,89.12
2019-04-14T05:23:32.119Z,88.76
2019-04-14T05:26:19.890Z,88.44
2019-04-14T05:29:08.336Z,88.43
2019-04-14T05:31:55.515Z,88.08
2019-04-14T05:34:41.270Z,85.75
2019-04-14T05:37:26.905Z,84.40
2019-04-14T05:40:14.456Z,84.37
2019-04-14T05:43:00.860Z,83.18
2019-04-14T05:45:48.014Z,81.46
2019-04-14T05:48:35.755Z,81.46
2019-04-14T05:51:23.219Z,82.71
2019-04-14T05:54:12.139Z,84.24
2019-04-14T05:56:58.310Z,85.67
2019-04-14T05:59:44.238Z,85.39
2019-04-14T06:02:31.021Z,86.05
2019-04-14T06:05:18.993Z,84.94
2019-04-14T06:08:04.887Z,85.57
2019-04-14T06:10:50.452Z,84.98
2019-04-14T06:13:36.433Z,84.33
2019-04-14T06:16:21.986Z,83.85
2019-04-14T06:19:07.780Z,84.34
2019-04-14T06:21:54.079Z,82.31
2019-04-14T06:24:39.559Z,82.90
2019-04-14T06:27:25.974Z,82.90
2019-04-14T06:30:44.339Z,79.67
2019-04-14T06:33:36.218Z,79.17
2019-04-14T06:36:35.742Z,74.80
2019-04-14T06:39:27.415Z,74.80
2019-04-14T06:42:13.946Z,75.80
2019-04-14T06:44:59.634Z,76.16
2019-04-14T06:47:45.762Z,76.16
2019-04-14T06:50:31.734Z,78.37
2019-04-14T06:53:17.438Z,77.23
2019-04-14T06:56:05.446Z,78.02
2019-04-14T06:58:51.643Z,76.14
2019-04-14T07:01:38.996Z,77.12
2019-04-14T07:04:25.187Z,79.03
2019-04-14T07:07:11.104Z,78.32
2019-04-14T07:09:56.756Z,77.66
2019-04-14T07:12:43.307Z,78.64
2019-04-14T07:15:29.796Z,73.14
2019-04-14T07:18:15.637Z,71.89
2019-04-14T07:21:05.634Z,67.66
2019-04-14T07:23:52.138Z,70.85
2019-04-14T07:26:37.826Z,70.78
2019-04-14T07:29:26.511Z,69.34
2019-04-14T07:32:30.627Z,65.94
2019-04-14T07:35:34.551Z,68.41
2019-04-14T07:38:28.982Z,68.12
2019-04-14T07:41:22.278Z,73.11
2019-04-14T07:44:40.552Z,71.58
2019-04-14T07:47:46.156Z,65.65
2019-04-14T07:50:46.728Z,66.10
2019-04-14T07:53:53.952Z,66.10
2019-04-14T07:56:58.423Z,67.26
2019-04-14T07:59:50.523Z,66.79
2019-04-14T08:02:41.623Z,66.27
2019-04-14T08:05:30.888Z,67.41
2019-04-14T08:08:16.540Z,66.79
2019-04-14T08:11:02.493Z,65.09
2019-04-14T08:13:48.234Z,63.33
2019-04-14T08:16:33.959Z,66.19
2019-04-14T08:19:19.869Z,64.49
2019-04-14T08:22:06.111Z,67.48
2019-04-14T08:24:52.732Z,69.16
2019-04-14T08:27:38.987Z,65.63
2019-04-14T08:30:26.037Z,62.93
2019-04-14T08:33:11.594Z,62.29
2019-04-14T08:35:57.385Z,62.61
2019-04-14T08:38:43.612Z,60.22
2019-04-14T08:41:36.742Z,59.05
2019-04-14T08:44:47.757Z,67.14
2019-04-14T08:47:44.012Z,60.94
2019-04-14T08:51:01.240Z,61.52
2019-04-14T08:53:51.896Z,59.76
2019-04-14T08:56:47.912Z,58.52
2019-04-14T08:59:56.460Z,60.35
2019-04-14T09:03:00.206Z,57.86
2019-04-14T09:05:56.748Z,59.30
2019-04-14T09:09:09.909Z,61.99
2019-04-14T09:11:59.969Z,57.56
2019-04-14T09:14:56.278Z,56.12
2019-04-14T09:17:33.717Z,56.10
2019-04-14T09:20:19.653Z,54.88
2019-04-14T09:23:05.634Z,56.67
2019-04-14T09:25:51.245Z,55.24
2019-04-14T09:28:37.645Z,58.51
2019-04-14T09:31:24.651Z,57.15
2019-04-14T09:34:11.995Z,57.84
2019-04-14T09:36:57.977Z,54.00
2019-04-14T09:39:43.870Z,55.10
2019-04-14T09:42:29.549Z,52.37
2019-04-14T09:45:15.076Z,54.09
2019-04-14T09:48:01.566Z,56.89
2019-04-14T09:50:47.146Z,54.81
2019-04-14T09:53:33.241Z,54.02
2019-04-14T09:56:19.758Z,57.42
2019-04-14T09:59:05.511Z,59.09
2019-04-14T10:01:51.029Z,55.71
2019-04-14T10:04:36.981Z,54.29
2019-04-14T10:07:22.466Z,50.92
2019-04-14T10:10:10.156Z,54.13
2019-04-14T10:12:56.526Z,51.00
2019-04-14T10:15:42.417Z,50.65
2019-04-14T10:18:28.433Z,53.22
2019-04-14T10:21:17.525Z,54.64
2019-04-14T10:24:02.625Z,52.97
2019-04-14T10:26:48.666Z,51.91
2019-04-14T10:29:34.042Z,52.42
2019-04-14T10:32:20.429Z,51.70
2019-04-14T10:35:06.706Z,50.53
2019-04-14T10:37:52.529Z,52.99
2019-04-14T10:40:38.407Z,54.23
2019-04-14T10:43:26.550Z,51.00
2019-04-14T10:46:12.426Z,51.68
2019-04-14T10:48:58.482Z,50.77
2019-04-14T10:51:44.230Z,50.11
2019-04-14T10:54:30.481Z,51.82
2019-04-14T10:57:16.571Z,52.94
2019-04-14T11:00:05.033Z,54.41
2019-04-14T11:02:50.717Z,49.87
2019-04-14T11:06:09.024Z,53.57
2019-04-14T11:08:54.681Z,52.00
2019-04-14T11:11:40.435Z,53.63
2019-04-14T11:14:27.672Z,51.64
2019-04-14T11:17:13.252Z,53.79
2019-04-14T11:19:58.981Z,55.37
2019-04-14T11:22:45.428Z,52.23
2019-04-14T11:25:31.401Z,49.96
2019-04-14T11:28:26.596Z,52.61
2019-04-14T11:31:14.432Z,53.44
2019-04-14T11:34:01.867Z,50.85
2019-04-14T11:37:06.733Z,52.48
2019-04-14T11:39:52.157Z,51.54
2019-04-14T11:42:38.129Z,51.46
2019-04-14T11:45:27.106Z,50.81
2019-04-14T11:48:13.108Z,51.15
2019-04-14T11:50:58.688Z,48.74
2019-04-14T11:53:53.777Z,48.93
2019-04-14T11:56:40.191Z,50.22
2019-04-14T11:59:37.703Z,55.49
2019-04-14T12:02:41.728Z,51.67
2019-04-14T12:05:37.484Z,51.58
2019-04-14T12:08:33.613Z,52.02
2019-04-14T12:11:19.322Z,48.93
2019-04-14T12:14:05.301Z,49.43
2019-04-14T12:16:51.104Z,48.10
2019-04-14T12:19:36.707Z,50.33
2019-04-14T12:22:23.629Z,50.51
2019-04-14T12:25:09.742Z,48.54
2019-04-14T12:27:55.810Z,49.93
2019-04-14T12:30:44.323Z,51.18
2019-04-14T12:33:30.308Z,51.09
2019-04-14T12:36:16.217Z,48.24
2019-04-14T12:39:04.662Z,48.07
2019-04-14T12:41:55.332Z,48.70
2019-04-14T12:44:59.813Z,48.54
2019-04-14T12:48:11.546Z,47.70
2019-04-14T12:51:00.297Z,49.25
2019-04-14T12:53:46.817Z,50.37
2019-04-14T12:56:32.929Z,50.96
2019-04-14T12:59:22.981Z,52.77
2019-04-14T13:02:13.427Z,53.46
2019-04-14T13:04:59.144Z,52.85
2019-04-14T13:07:47.097Z,50.98
2019-04-14T13:10:33.621Z,50.38
2019-04-14T13:13:19.553Z,48.38
2019-04-14T13:16:05.574Z,49.32
2019-04-14T13:18:51.654Z,50.95
2019-04-14T13:21:40.340Z,52.60
2019-04-14T13:24:28.464Z,52.88
2019-04-14T13:27:14.265Z,53.27
2019-04-14T13:29:59.765Z,53.95
2019-04-14T13:32:45.765Z,54.28
2019-04-14T13:35:31.154Z,53.27
2019-04-14T13:38:17.114Z,51.44
2019-04-14T13:41:05.960Z,49.54
2019-04-14T13:43:51.750Z,49.67
2019-04-14T13:46:37.714Z,51.44
2019-04-14T13:49:24.540Z,48.14
2019-04-14T13:52:10.044Z,51.53
2019-04-14T13:54:55.730Z,53.30
2019-04-14T13:57:41.854Z,53.04
2019-04-14T14:00:28.062Z,54.39
2019-04-14T14:03:14.261Z,55.05
2019-04-14T14:06:00.566Z,55.49
2019-04-14T14:08:46.004Z,55.04
2019-04-14T14:11:37.395Z,55.12
2019-04-14T14:14:37.137Z,54.90
2019-04-14T14:17:32.754Z,54.93
2019-04-14T14:20:37.994Z,56.00
2019-04-14T14:23:41.633Z,55.04
2019-04-14T14:26:28.365Z,55.65
2019-04-14T14:29:13.970Z,55.64
2019-04-14T14:32:01.505Z,56.58
2019-04-14T14:34:47.406Z,56.14
2019-04-14T14:37:33.052Z,56.11
2019-04-14T14:40:19.416Z,56.46
2019-04-14T14:43:05.524Z,55.51
2019-04-14T14:46:05.691Z,55.41
2019-04-14T14:49:10.716Z,55.62
2019-04-14T14:52:07.060Z,54.98
2019-04-14T14:54:53.098Z,53.83
2019-04-14T14:57:38.929Z,52.27
2019-04-14T15:00:30.813Z,52.18
2019-04-14T15:03:16.496Z,51.45
2019-04-14T15:06:02.199Z,52.35
2019-04-14T15:08:49.377Z,52.16
2019-04-14T15:11:35.153Z,53.53
2019-04-14T15:14:21.135Z,53.39
2019-04-14T15:17:08.528Z,54.58
2019-04-14T15:19:54.610Z,55.42
2019-04-14T15:22:41.918Z,55.34
2019-04-14T15:25:28.443Z,56.42
2019-04-14T15:28:15.747Z,56.28
2019-04-14T15:31:01.674Z,56.54
2019-04-14T15:33:47.710Z,55.82
2019-04-14T15:36:33.522Z,57.30
2019-04-14T15:39:19.323Z,55.97
2019-04-14T15:42:05.364Z,56.37
2019-04-14T15:44:50.934Z,57.11
2019-04-14T15:47:37.491Z,57.64
2019-04-14T15:50:23.318Z,57.00
2019-04-14T15:53:09.111Z,57.62
2019-04-14T15:55:57.154Z,58.07
2019-04-14T15:58:51.028Z,57.99
2019-04-14T16:01:56.774Z,58.21
2019-04-14T16:05:07.738Z,57.70
2019-04-14T16:08:08.557Z,58.37
2019-04-14T16:11:10.624Z,58.86
2019-04-14T16:14:25.463Z,58.80
2019-04-14T16:17:31.560Z,58.57
2019-04-14T16:20:25.264Z,58.97
2019-04-14T16:23:10.804Z,60.17
2019-04-14T16:26:15.077Z,60.41
2019-04-14T16:29:32.115Z,61.58
2019-04-14T16:32:43.300Z,62.00
2019-04-14T16:35:29.521Z,61.85
2019-04-14T16:38:15.159Z,62.80
2019-04-14T16:41:01.322Z,62.46
2019-04-14T16:43:48.938Z,63.56
2019-04-14T16:46:34.724Z,63.78
2019-04-14T16:49:20.706Z,64.03
2019-04-14T16:52:32.147Z,64.76
2019-04-14T16:55:38.215Z,65.62
2019-04-14T16:58:36.508Z,66.80
2019-04-14T17:01:32.212Z,67.67
2019-04-14T17:04:18.192Z,68.13
2019-04-14T17:07:04.041Z,67.48
2019-04-14T17:09:50.815Z,66.58
2019-04-14T17:12:36.308Z,67.50
2019-04-14T17:15:44.751Z,67.78
2019-04-14T17:18:45.999Z,68.89
2019-04-14T17:21:45.152Z,68.57
2019-04-14T17:24:34.100Z,69.25
2019-04-14T17:27:46.138Z,69.61
2019-04-14T17:30:51.682Z,70.40
2019-04-14T17:33:46.651Z,70.73
2019-04-14T17:36:38.771Z,70.66
2019-04-14T17:39:39.863Z,71.17
2019-04-14T17:42:34.206Z,72.12
2019-04-14T17:45:32.405Z,72.69
2019-04-14T17:48:28.135Z,72.83
2019-04-14T17:51:19.658Z,72.71
2019-04-14T17:54:29.781Z,72.97
2019-04-14T17:57:32.119Z,73.80
2019-04-14T18:00:22.806Z,73.92
2019-04-14T18:03:35.319Z,73.95
2019-04-14T18:06:25.191Z,73.43
2019-04-14T18:09:46.271Z,74.47
2019-04-14T18:13:06.498Z,74.73
2019-04-14T18:16:20.880Z,75.08
2019-04-14T18:19:19.439Z,76.06
2019-04-14T18:22:05.123Z,75.47
2019-04-14T18:24:51.213Z,74.85
2019-04-14T18:27:47.339Z,76.15
2019-04-14T18:30:38.040Z,75.45
2019-04-14T18:33:59.059Z,75.98
2019-04-14T18:37:04.296Z,76.17
2019-04-14T18:40:04.626Z,77.72
2019-04-14T18:43:20.928Z,77.73
2019-04-14T18:46:14.164Z,78.56
2019-04-14T18:49:14.827Z,78.51
2019-04-14T18:52:39.260Z,79.23
2019-04-14T18:55:42.369Z,78.49
2019-04-14T18:58:55.343Z,80.56
2019-04-14T19:01:44.620Z,79.98
2019-04-14T19:04:31.069Z,81.02
2019-04-14T19:07:20.336Z,81.26
2019-04-14T19:10:06.932Z,80.73
2019-04-14T19:12:57.966Z,81.55
2019-04-14T19:16:00.612Z,81.44
2019-04-14T19:18:48.942Z,80.66
2019-04-14T19:21:35.240Z,80.38
2019-04-14T19:24:20.821Z,80.68
2019-04-14T19:27:07.021Z,80.22
2019-04-14T19:29:52.803Z,80.27
2019-04-14T19:32:38.667Z,79.70
2019-04-14T19:35:26.912Z,79.52
2019-04-14T19:38:12.681Z,81.37
2019-04-14T19:40:58.405Z,81.20
2019-04-14T19:43:46.345Z,82.24
2019-04-14T19:46:34.808Z,82.25
2019-04-14T19:49:20.703Z,81.68
2019-04-14T19:52:06.473Z,80.90
2019-04-14T19:54:52.622Z,81.51
2019-04-14T19:57:38.090Z,81.66
2019-04-14T20:00:23.680Z,82.01
2019-04-14T20:03:09.804Z,82.57
2019-04-14T20:05:55.712Z,82.22
2019-04-14T20:08:43.968Z,81.74
2019-04-14T20:11:31.367Z,81.93
2019-04-14T20:14:16.982Z,80.79
2019-04-14T20:17:21.274Z,81.01
2019-04-14T20:20:25.288Z,81.22
2019-04-14T20:23:24.483Z,80.00
2019-04-14T20:26:48.090Z,80.10
2019-04-14T20:29:38.325Z,80.06
2019-04-14T20:32:27.392Z,80.10
2019-04-14T20:35:15.119Z,79.16
2019-04-14T20:38:00.822Z,79.72
2019-04-14T20:40:47.298Z,79.18
2019-04-14T20:43:32.832Z,79.36
2019-04-14T20:46:18.802Z,79.98
2019-04-14T20:49:07.612Z,79.58
2019-04-14T20:51:53.733Z,79.49
2019-04-14T20:54:41.073Z,79.52
2019-04-14T20:57:27.182Z,79.77
2019-04-14T21:00:13.593Z,79.57
2019-04-14T21:03:28.151Z,79.86
2019-04-14T21:06:28.195Z,79.98
2019-04-14T21:09:17.931Z,79.52
2019-04-14T21:12:26.271Z,78.84
2019-04-14T21:15:27.516Z,79.48
2019-04-14T21:18:22.417Z,79.79
2019-04-14T21:21:32.893Z,79.28
2019-04-14T21:24:54.666Z,78.74
2019-04-14T21:27:58.553Z,78.51
2019-04-14T21:31:01.845Z,79.26
2019-04-14T21:34:10.336Z,79.68
2019-04-14T21:37:33.393Z,79.27
2019-04-14T21:40:22.893Z,79.92
2019-04-14T21:43:09.149Z,80.11
2019-04-14T21:45:55.532Z,79.83
2019-04-14T21:48:41.487Z,79.27
2019-04-14T21:51:47.339Z,79.15
2019-04-14T21:54:33.307Z,79.03
2019-04-14T21:57:36.091Z,79.50
2019-04-14T22:01:00.381Z,79.67
2019-04-14T22:04:09.001Z,79.07
2019-04-14T22:06:55.453Z,79.16
2019-04-14T22:09:42.175Z,78.91
2019-04-14T22:12:29.764Z,80.00
2019-04-14T22:15:15.618Z,79.57
2019-04-14T22:18:01.026Z,79.75
2019-04-14T22:20:46.994Z,78.25
2019-04-14T22:23:32.553Z,78.44
2019-04-14T22:26:25.860Z,77.88
2019-04-14T22:29:06.620Z,78.67
2019-04-14T22:31:53.120Z,79.65
2019-04-14T22:34:39.537Z,79.67
2019-04-14T22:37:25.325Z,80.28
2019-04-14T22:40:11.781Z,80.34
2019-04-14T22:42:58.328Z,79.47
2019-04-14T22:45:44.637Z,80.59
2019-04-14T22:48:30.384Z,80.97
2019-04-14T22:51:16.437Z,81.11
2019-04-14T22:54:03.053Z,80.53
2019-04-14T22:56:49.082Z,80.88
2019-04-14T22:59:35.612Z,81.02
2019-04-14T23:02:32.421Z,81.02
2019-04-14T23:05:49.666Z,81.22
2019-04-14T23:08:44.465Z,81.05
2019-04-14T23:11:39.390Z,81.76
2019-04-14T23:14:41.778Z,81.40
2019-04-14T23:17:41.677Z,81.78
2019-04-14T23:20:56.666Z,81.43
2019-04-14T23:24:00.518Z,80.96
2019-04-14T23:26:52.549Z,82.04
2019-04-14T23:29:33.627Z,81.83
2019-04-14T23:32:20.478Z,81.06
2019-04-14T23:35:06.830Z,81.31
2019-04-14T23:37:52.788Z,82.10
2019-04-14T23:40:38.322Z,81.96
2019-04-14T23:43:24.342Z,82.20
2019-04-14T23:46:11.150Z,81.87
2019-04-14T23:48:56.650Z,81.17
2019-04-14T23:51:42.834Z,81.46
2019-04-14T23:54:28.808Z,82.07
2019-04-14T23:57:14.276Z,82.55
